createdAt,value
2018-11-01T00:00:57.834Z,961.77
2018-11-01T00:01:57.758Z,961.80
2018-11-01T00:02:57.741Z,961.79
2018-11-01T00:03:57.742Z,961.76
2018-11-01T00:04:57.739Z,961.73
2018-11-01T00:05:57.771Z,961.70
2018-11-01T00:06:57.667Z,961.68
2018-11-01T00:07:57.679Z,961.72
2018-11-01T00:08:57.655Z,961.69
2018-11-01T00:09:57.705Z,961.67
2018-11-01T00:10:57.629Z,961.67
2018-11-01T00:11:57.622Z,961.64
2018-11-01T00:12:57.627Z,961.70
2018-11-01T00:13:57.604Z,961.73
2018-11-01T00:14:57.627Z,961.76
2018-11-01T00:15:57.577Z,961.76
2018-11-01T00:16:57.602Z,961.79
2018-11-01T00:17:57.552Z,961.82
2018-11-01T00:18:57.547Z,961.90
2018-11-01T00:19:57.613Z,962.03
2018-11-01T00:20:57.557Z,962.03
2018-11-01T00:21:57.508Z,962.06
2018-11-01T00:22:57.517Z,962.11
2018-11-01T00:23:57.495Z,962.05
2018-11-01T00:24:57.525Z,962.08
2018-11-01T00:25:57.457Z,962.14
2018-11-01T00:26:57.521Z,962.10
2018-11-01T00:27:57.479Z,962.08
2018-11-01T00:28:57.426Z,962.04
2018-11-01T00:29:57.455Z,962.08
2018-11-01T00:30:57.402Z,962.11
2018-11-01T00:31:57.390Z,962.10
2018-11-01T00:32:57.387Z,962.01
2018-11-01T00:33:57.380Z,962.04
2018-11-01T00:34:57.397Z,962.06
2018-11-01T00:35:57.360Z,961.98
2018-11-01T00:36:57.336Z,961.96
2018-11-01T00:37:57.330Z,961.86
2018-11-01T00:38:57.387Z,961.91
2018-11-01T00:39:57.318Z,961.85
2018-11-01T00:40:57.295Z,961.87
2018-11-01T00:41:57.325Z,961.83
2018-11-01T00:42:57.296Z,961.92
2018-11-01T00:43:57.287Z,961.97
2018-11-01T00:44:57.259Z,962.09
2018-11-01T00:45:57.241Z,962.09
2018-11-01T00:46:57.258Z,962.09
2018-11-01T00:47:57.212Z,962.07
2018-11-01T00:48:57.203Z,962.05
2018-11-01T00:49:57.218Z,962.11
2018-11-01T00:50:57.185Z,962.12
2018-11-01T00:51:57.169Z,962.13
2018-11-01T00:52:57.163Z,962.08
2018-11-01T00:53:57.173Z,962.10
2018-11-01T00:54:57.139Z,962.09
2018-11-01T00:55:57.213Z,962.04
2018-11-01T00:56:57.146Z,962.06
2018-11-01T00:57:57.172Z,962.11
2018-11-01T00:58:57.126Z,962.10
2018-11-01T00:59:57.084Z,962.13
2018-11-01T01:00:57.120Z,962.16
2018-11-01T01:01:57.099Z,962.13
2018-11-01T01:02:57.075Z,962.12
2018-11-01T01:03:57.096Z,962.11
2018-11-01T01:04:57.053Z,962.09
2018-11-01T01:05:57.061Z,962.00
2018-11-01T01:06:57.014Z,961.88
2018-11-01T01:07:57.032Z,961.90
2018-11-01T01:08:56.987Z,961.84
2018-11-01T01:09:56.971Z,961.77
2018-11-01T01:10:56.983Z,961.75
2018-11-01T01:11:56.971Z,961.70
2018-11-01T01:12:56.982Z,961.65
2018-11-01T01:13:56.923Z,961.62
2018-11-01T01:14:56.916Z,961.61
2018-11-01T01:15:56.984Z,961.61
2018-11-01T01:16:56.921Z,961.59
2018-11-01T01:17:56.899Z,961.61
2018-11-01T01:18:56.976Z,961.64
2018-11-01T01:19:56.905Z,961.68
2018-11-01T01:20:56.912Z,961.72
2018-11-01T01:21:56.843Z,961.66
2018-11-01T01:22:56.840Z,961.65
2018-11-01T01:23:56.829Z,961.65
2018-11-01T01:24:56.883Z,961.63
2018-11-01T01:25:56.808Z,961.52
2018-11-01T01:26:56.846Z,961.48
2018-11-01T01:27:56.770Z,961.45
2018-11-01T01:28:56.761Z,961.41
2018-11-01T01:29:56.807Z,961.38
2018-11-01T01:30:56.786Z,961.35
2018-11-01T01:31:56.741Z,961.43
2018-11-01T01:32:56.714Z,961.43
2018-11-01T01:33:56.783Z,961.51
2018-11-01T01:34:56.695Z,961.45
2018-11-01T01:35:56.726Z,961.47
2018-11-01T01:36:56.719Z,961.38
2018-11-01T01:37:56.694Z,961.38
2018-11-01T01:38:56.683Z,961.32
2018-11-01T01:39:56.711Z,961.27
2018-11-01T01:40:56.666Z,961.19
2018-11-01T01:41:56.619Z,961.19
2018-11-01T01:42:56.625Z,961.15
2018-11-01T01:43:56.604Z,961.14
2018-11-01T01:44:56.588Z,961.05
2018-11-01T01:45:56.608Z,961.01
2018-11-01T01:46:56.613Z,961.04
2018-11-01T01:47:56.589Z,961.04
2018-11-01T01:48:56.588Z,961.07
2018-11-01T01:49:56.545Z,961.10
2018-11-01T01:50:56.539Z,961.09
2018-11-01T01:51:56.528Z,961.12
2018-11-01T01:52:56.520Z,961.19
2018-11-01T01:53:56.509Z,961.29
2018-11-01T01:54:56.498Z,961.32
2018-11-01T01:55:56.464Z,961.43
2018-11-01T01:56:56.497Z,961.48
2018-11-01T01:57:56.451Z,961.49
2018-11-01T01:58:56.448Z,961.53
2018-11-01T01:59:56.451Z,961.45
2018-11-01T02:00:56.440Z,961.51
2018-11-01T02:01:56.393Z,961.45
2018-11-01T02:02:56.400Z,961.52
2018-11-01T02:03:56.401Z,961.48
2018-11-01T02:04:56.415Z,961.49
2018-11-01T02:05:56.406Z,961.52
2018-11-01T02:06:56.369Z,961.54
2018-11-01T02:07:56.325Z,961.48
2018-11-01T02:08:56.322Z,961.58
2018-11-01T02:09:56.358Z,961.56
2018-11-01T02:10:56.291Z,961.61
2018-11-01T02:11:56.506Z,961.54
2018-11-01T02:12:56.275Z,961.54
2018-11-01T02:13:56.275Z,961.56
2018-11-01T02:14:56.270Z,961.51
2018-11-01T02:15:56.261Z,961.50
2018-11-01T02:16:56.296Z,961.54
2018-11-01T02:17:56.210Z,961.51
2018-11-01T02:18:56.219Z,961.43
2018-11-01T02:19:56.215Z,961.38
2018-11-01T02:20:56.215Z,961.37
2018-11-01T02:21:56.203Z,961.30
2018-11-01T02:22:56.181Z,961.36
2018-11-01T02:23:56.180Z,961.29
2018-11-01T02:24:56.161Z,961.28
2018-11-01T02:25:56.125Z,961.33
2018-11-01T02:26:56.129Z,961.24
2018-11-01T02:27:56.127Z,961.28
2018-11-01T02:28:56.136Z,961.29
2018-11-01T02:29:56.115Z,961.28
2018-11-01T02:30:56.091Z,961.34
2018-11-01T02:31:56.083Z,961.37
2018-11-01T02:32:56.087Z,961.35
2018-11-01T02:33:56.058Z,961.33
2018-11-01T02:34:56.072Z,961.30
2018-11-01T02:35:56.026Z,961.27
2018-11-01T02:36:56.010Z,961.22
2018-11-01T02:37:56.033Z,961.25
2018-11-01T02:38:55.999Z,961.29
2018-11-01T02:39:56.001Z,961.34
2018-11-01T02:40:55.992Z,961.31
2018-11-01T02:41:55.947Z,961.33
2018-11-01T02:42:56.003Z,961.33
2018-11-01T02:43:55.932Z,961.34
2018-11-01T02:44:55.916Z,961.41
2018-11-01T02:45:55.906Z,961.38
2018-11-01T02:46:55.963Z,961.38
2018-11-01T02:47:55.896Z,961.36
2018-11-01T02:48:55.879Z,961.33
2018-11-01T02:49:55.905Z,961.34
2018-11-01T02:50:55.879Z,961.32
2018-11-01T02:51:55.834Z,961.32
2018-11-01T02:52:55.867Z,961.33
2018-11-01T02:53:55.871Z,961.28
2018-11-01T02:54:55.837Z,961.35
2018-11-01T02:55:55.802Z,961.35
2018-11-01T02:56:55.800Z,961.30
2018-11-01T02:57:55.814Z,961.28
2018-11-01T02:58:55.807Z,961.35
2018-11-01T02:59:55.840Z,961.36
2018-11-01T03:00:55.742Z,961.37
2018-11-01T03:01:55.724Z,961.36
2018-11-01T03:02:55.737Z,961.30
2018-11-01T03:03:55.715Z,961.25
2018-11-01T03:04:55.691Z,961.20
2018-11-01T03:05:55.729Z,961.18
2018-11-01T03:06:55.735Z,961.11
2018-11-01T03:07:55.655Z,961.12
2018-11-01T03:08:55.711Z,961.07
2018-11-01T03:09:55.666Z,961.09
2018-11-01T03:10:55.628Z,961.01
2018-11-01T03:11:55.615Z,960.97
2018-11-01T03:12:55.637Z,960.93
2018-11-01T03:13:55.616Z,961.01
2018-11-01T03:14:55.684Z,960.95
2018-11-01T03:15:55.597Z,960.92
2018-11-01T03:16:55.658Z,960.92
2018-11-01T03:17:55.632Z,960.90
2018-11-01T03:18:55.550Z,960.89
2018-11-01T03:19:55.524Z,960.85
2018-11-01T03:20:55.579Z,960.85
2018-11-01T03:21:55.529Z,960.83
2018-11-01T03:22:55.539Z,960.88
2018-11-01T03:23:55.536Z,960.88
2018-11-01T03:24:55.473Z,960.89
2018-11-01T03:25:55.463Z,960.88
2018-11-01T03:26:55.471Z,960.87
2018-11-01T03:27:55.457Z,960.92
2018-11-01T03:28:55.460Z,960.85
2018-11-01T03:29:55.433Z,960.82
2018-11-01T03:30:55.426Z,960.84
2018-11-01T03:31:55.419Z,960.83
2018-11-01T03:32:55.389Z,960.84
2018-11-01T03:33:55.381Z,960.91
2018-11-01T03:34:55.366Z,960.90
2018-11-01T03:35:55.382Z,960.97
2018-11-01T03:36:55.336Z,961.03
2018-11-01T03:37:55.346Z,960.94
2018-11-01T03:38:55.401Z,961.01
2018-11-01T03:39:55.319Z,961.05
2018-11-01T03:40:55.331Z,961.07
2018-11-01T03:41:55.301Z,961.04
2018-11-01T03:42:55.322Z,961.02
2018-11-01T03:43:55.284Z,960.92
2018-11-01T03:44:55.255Z,960.91
2018-11-01T03:45:55.251Z,960.87
2018-11-01T03:46:55.280Z,960.79
2018-11-01T03:47:55.256Z,960.78
2018-11-01T03:48:55.199Z,960.68
2018-11-01T03:49:55.216Z,960.60
2018-11-01T03:50:55.199Z,960.53
2018-11-01T03:51:55.185Z,960.46
2018-11-01T03:52:55.179Z,960.44
2018-11-01T03:53:55.199Z,960.37
2018-11-01T03:54:55.146Z,960.37
2018-11-01T03:55:55.148Z,960.34
2018-11-01T03:56:55.165Z,960.30
2018-11-01T03:57:55.160Z,960.34
2018-11-01T03:58:55.159Z,960.30
2018-11-01T03:59:55.169Z,960.33
2018-11-01T04:00:55.069Z,960.26
2018-11-01T04:01:55.057Z,960.27
2018-11-01T04:02:55.072Z,960.23
2018-11-01T04:03:55.122Z,960.27
2018-11-01T04:04:55.049Z,960.27
2018-11-01T04:05:55.138Z,960.33
2018-11-01T04:06:55.007Z,960.32
2018-11-01T04:07:54.994Z,960.35
2018-11-01T04:08:55.021Z,960.44
2018-11-01T04:09:55.005Z,960.51
2018-11-01T04:10:54.993Z,960.55
2018-11-01T04:11:54.986Z,960.59
2018-11-01T04:12:54.951Z,960.65
2018-11-01T04:13:54.939Z,960.69
2018-11-01T04:14:55.028Z,960.62
2018-11-01T04:15:54.902Z,960.58
2018-11-01T04:16:55.018Z,960.49
2018-11-01T04:17:54.901Z,960.50
2018-11-01T04:18:54.871Z,960.46
2018-11-01T04:19:54.913Z,960.51
2018-11-01T04:20:54.862Z,960.54
2018-11-01T04:21:54.868Z,960.60
2018-11-01T04:22:54.825Z,960.60
2018-11-01T04:23:54.843Z,960.65
2018-11-01T04:24:54.836Z,960.62
2018-11-01T04:25:54.791Z,960.66
2018-11-01T04:26:54.828Z,960.61
2018-11-01T04:27:54.783Z,960.56
2018-11-01T04:28:54.792Z,960.63
2018-11-01T04:29:54.785Z,960.64
2018-11-01T04:30:54.808Z,960.67
2018-11-01T04:31:54.769Z,960.60
2018-11-01T04:32:54.814Z,960.59
2018-11-01T04:33:54.710Z,960.57
2018-11-01T04:34:54.741Z,960.50
2018-11-01T04:35:54.729Z,960.46
2018-11-01T04:36:54.696Z,960.44
2018-11-01T04:37:54.753Z,960.40
2018-11-01T04:38:54.648Z,960.38
2018-11-01T04:39:54.682Z,960.43
2018-11-01T04:40:54.676Z,960.39
2018-11-01T04:41:54.616Z,960.29
2018-11-01T04:42:54.621Z,960.31
2018-11-01T04:43:54.651Z,960.25
2018-11-01T04:44:54.594Z,960.24
2018-11-01T04:45:54.641Z,960.20
2018-11-01T04:46:54.568Z,960.15
2018-11-01T04:47:54.674Z,960.13
2018-11-01T04:48:54.583Z,960.10
2018-11-01T04:49:54.535Z,960.07
2018-11-01T04:50:54.526Z,960.00
2018-11-01T04:51:54.511Z,959.97
2018-11-01T04:52:54.508Z,960.00
2018-11-01T04:53:54.488Z,960.02
2018-11-01T04:54:54.520Z,960.04
2018-11-01T04:55:54.467Z,960.10
2018-11-01T04:56:54.449Z,960.07
2018-11-01T04:57:54.472Z,960.10
2018-11-01T04:58:54.429Z,959.99
2018-11-01T04:59:54.423Z,959.90
2018-11-01T05:00:54.410Z,959.81
2018-11-01T05:01:54.394Z,959.75
2018-11-01T05:02:54.396Z,959.71
2018-11-01T05:03:54.401Z,959.72
2018-11-01T05:04:54.381Z,959.68
2018-11-01T05:05:54.357Z,959.75
2018-11-01T05:06:54.432Z,959.77
2018-11-01T05:07:54.339Z,959.83
2018-11-01T05:08:54.314Z,959.79
2018-11-01T05:09:54.355Z,959.84
2018-11-01T05:10:54.370Z,959.89
2018-11-01T05:11:54.279Z,959.89
2018-11-01T05:12:54.380Z,959.90
2018-11-01T05:13:54.276Z,959.91
2018-11-01T05:14:54.265Z,959.87
2018-11-01T05:15:54.232Z,959.86
2018-11-01T05:16:54.243Z,959.76
2018-11-01T05:17:54.229Z,959.67
2018-11-01T05:18:54.209Z,959.73
2018-11-01T05:19:54.212Z,959.69
2018-11-01T05:20:54.188Z,959.65
2018-11-01T05:21:54.291Z,959.66
2018-11-01T05:22:54.194Z,959.58
2018-11-01T05:23:54.145Z,959.48
2018-11-01T05:24:54.141Z,959.36
2018-11-01T05:25:54.242Z,959.39
2018-11-01T05:26:54.153Z,959.44
2018-11-01T05:27:54.101Z,959.41
2018-11-01T05:28:54.126Z,959.41
2018-11-01T05:29:54.081Z,959.42
2018-11-01T05:30:54.076Z,959.45
2018-11-01T05:31:54.078Z,959.39
2018-11-01T05:32:54.077Z,959.37
2018-11-01T05:33:54.045Z,959.32
2018-11-01T05:34:54.026Z,959.29
2018-11-01T05:35:54.056Z,959.28
2018-11-01T05:36:54.032Z,959.24
2018-11-01T05:37:54.026Z,959.20
2018-11-01T05:38:53.981Z,959.15
2018-11-01T05:39:53.973Z,959.19
2018-11-01T05:40:53.993Z,959.20
2018-11-01T05:41:54.049Z,959.24
2018-11-01T05:42:53.978Z,959.28
2018-11-01T05:43:53.993Z,959.24
2018-11-01T05:44:53.911Z,959.31
2018-11-01T05:45:53.910Z,959.26
2018-11-01T05:46:53.919Z,959.23
2018-11-01T05:47:53.906Z,959.18
2018-11-01T05:48:53.868Z,959.13
2018-11-01T05:49:53.879Z,959.10
2018-11-01T05:50:53.865Z,959.07
2018-11-01T05:51:53.862Z,959.17
2018-11-01T05:52:53.893Z,959.16
2018-11-01T05:53:53.883Z,959.17
2018-11-01T05:54:53.813Z,959.11
2018-11-01T05:55:53.812Z,959.01
2018-11-01T05:56:53.789Z,958.93
2018-11-01T05:57:53.788Z,958.89
2018-11-01T05:58:53.780Z,958.92
2018-11-01T05:59:53.820Z,958.89
2018-11-01T06:00:53.743Z,958.97
2018-11-01T06:01:53.772Z,958.91
2018-11-01T06:02:53.718Z,959.02
2018-11-01T06:03:53.699Z,959.08
2018-11-01T06:04:53.727Z,959.08
2018-11-01T06:05:53.700Z,959.06
2018-11-01T06:06:53.678Z,959.06
2018-11-01T06:07:53.655Z,959.03
2018-11-01T06:08:53.661Z,959.08
2018-11-01T06:09:53.638Z,959.12
2018-11-01T06:10:53.670Z,959.07
2018-11-01T06:11:53.653Z,959.07
2018-11-01T06:12:53.655Z,959.01
2018-11-01T06:13:53.605Z,958.95
2018-11-01T06:14:53.612Z,958.98
2018-11-01T06:15:53.569Z,958.97
2018-11-01T06:16:53.572Z,959.10
2018-11-01T06:17:53.589Z,959.14
2018-11-01T06:18:53.545Z,959.12
2018-11-01T06:19:53.546Z,959.08
2018-11-01T06:20:53.528Z,959.13
2018-11-01T06:21:53.582Z,959.14
2018-11-01T06:22:53.488Z,959.06
2018-11-01T06:23:53.486Z,958.97
2018-11-01T06:24:53.466Z,958.86
2018-11-01T06:25:53.468Z,958.90
2018-11-01T06:26:53.455Z,958.91
2018-11-01T06:27:53.443Z,958.91
2018-11-01T06:28:53.434Z,958.92
2018-11-01T06:29:53.439Z,958.83
2018-11-01T06:30:53.428Z,958.87
2018-11-01T06:31:53.395Z,958.91
2018-11-01T06:32:53.427Z,958.86
2018-11-01T06:33:53.418Z,958.85
2018-11-01T06:34:53.359Z,958.96
2018-11-01T06:35:53.363Z,959.02
2018-11-01T06:36:53.342Z,959.04
2018-11-01T06:37:53.371Z,959.04
2018-11-01T06:38:53.361Z,959.06
2018-11-01T06:39:53.370Z,958.97
2018-11-01T06:40:53.334Z,958.96
2018-11-01T06:41:53.338Z,958.97
2018-11-01T06:42:53.265Z,958.92
2018-11-01T06:43:53.257Z,958.96
2018-11-01T06:44:53.324Z,958.95
2018-11-01T06:45:53.269Z,958.91
2018-11-01T06:46:53.243Z,958.89
2018-11-01T06:47:53.234Z,958.85
2018-11-01T06:48:53.235Z,958.87
2018-11-01T06:49:53.219Z,958.85
2018-11-01T06:50:53.207Z,959.02
2018-11-01T06:51:53.167Z,959.04
2018-11-01T06:52:53.199Z,958.94
2018-11-01T06:53:53.177Z,958.93
2018-11-01T06:54:53.151Z,958.99
2018-11-01T06:55:53.133Z,959.00
2018-11-01T06:56:53.155Z,958.96
2018-11-01T06:57:53.126Z,958.97
2018-11-01T06:58:53.261Z,958.93
2018-11-01T06:59:53.109Z,958.88
2018-11-01T07:00:53.071Z,958.89
2018-11-01T07:01:53.071Z,958.84
2018-11-01T07:02:53.135Z,958.87
2018-11-01T07:03:53.041Z,958.92
2018-11-01T07:04:53.046Z,958.95
2018-11-01T07:05:53.036Z,958.95
2018-11-01T07:06:53.016Z,958.84
2018-11-01T07:07:53.061Z,958.70
2018-11-01T07:08:52.979Z,958.75
2018-11-01T07:09:52.993Z,958.75
2018-11-01T07:10:52.972Z,958.84
2018-11-01T07:11:52.979Z,958.88
2018-11-01T07:12:52.958Z,958.96
2018-11-01T07:13:52.930Z,958.92
2018-11-01T07:14:52.925Z,958.97
2018-11-01T07:15:52.940Z,959.09
2018-11-01T07:16:52.952Z,959.10
2018-11-01T07:17:52.941Z,959.08
2018-11-01T07:18:52.887Z,959.16
2018-11-01T07:19:52.898Z,959.27
2018-11-01T07:20:52.853Z,959.21
2018-11-01T07:21:52.841Z,959.28
2018-11-01T07:22:52.856Z,959.27
2018-11-01T07:23:52.836Z,959.20
2018-11-01T07:24:52.808Z,959.21
2018-11-01T07:26:00.491Z,959.20
2018-11-01T07:26:52.785Z,959.20
2018-11-01T07:27:52.768Z,959.16
2018-11-01T07:28:52.775Z,959.23
2018-11-01T07:29:52.751Z,959.21
2018-11-01T07:30:52.745Z,959.23
2018-11-01T07:31:52.729Z,959.27
2018-11-01T07:32:52.772Z,959.21
2018-11-01T07:33:52.716Z,959.15
2018-11-01T07:34:52.693Z,959.24
2018-11-01T07:35:52.689Z,959.29
2018-11-01T07:36:52.678Z,959.29
2018-11-01T07:37:52.667Z,959.34
2018-11-01T07:38:52.660Z,959.29
2018-11-01T07:39:52.654Z,959.30
2018-11-01T07:40:52.625Z,959.32
2018-11-01T07:41:52.617Z,959.38
2018-11-01T07:42:52.624Z,959.32
2018-11-01T07:43:52.613Z,959.35
2018-11-01T07:44:52.588Z,959.35
2018-11-01T07:45:52.579Z,959.29
2018-11-01T07:46:52.561Z,959.31
2018-11-01T07:47:52.554Z,959.35
2018-11-01T07:48:52.558Z,959.35
2018-11-01T07:49:52.534Z,959.35
2018-11-01T07:50:52.527Z,959.36
2018-11-01T07:51:52.511Z,959.24
2018-11-01T07:52:52.547Z,959.30
2018-11-01T07:53:52.521Z,959.28
2018-11-01T07:54:52.478Z,959.28
2018-11-01T07:55:52.470Z,959.17
2018-11-01T07:56:52.449Z,959.16
2018-11-01T07:57:52.443Z,959.13
2018-11-01T07:58:52.441Z,959.06
2018-11-01T07:59:52.428Z,959.00
2018-11-01T08:00:52.407Z,958.95
2018-11-01T08:01:52.401Z,958.88
2018-11-01T08:02:52.385Z,958.98
2018-11-01T08:03:52.389Z,959.03
2018-11-01T08:04:52.377Z,959.03
2018-11-01T08:05:52.478Z,959.00
2018-11-01T08:06:52.349Z,959.00
2018-11-01T08:07:52.334Z,958.95
2018-11-01T08:08:52.323Z,958.85
2018-11-01T08:09:52.322Z,958.87
2018-11-01T08:10:52.304Z,958.86
2018-11-01T08:11:52.360Z,958.82
2018-11-01T08:12:52.285Z,958.90
2018-11-01T08:13:52.267Z,958.87
2018-11-01T08:14:52.261Z,958.88
2018-11-01T08:15:52.246Z,958.92
2018-11-01T08:16:52.234Z,959.01
2018-11-01T08:17:52.248Z,959.04
2018-11-01T08:18:52.218Z,958.97
2018-11-01T08:19:52.345Z,958.99
2018-11-01T08:20:52.345Z,958.96
2018-11-01T08:21:52.185Z,958.93
2018-11-01T08:22:52.177Z,958.96
2018-11-01T08:23:52.160Z,959.03
2018-11-01T08:24:52.159Z,959.09
2018-11-01T08:25:52.133Z,958.95
2018-11-01T08:26:52.126Z,958.95
2018-11-01T08:27:52.164Z,959.04
2018-11-01T08:28:52.105Z,959.14
2018-11-01T08:29:52.094Z,959.09
2018-11-01T08:30:52.082Z,958.93
2018-11-01T08:31:52.066Z,958.89
2018-11-01T08:32:52.072Z,958.93
2018-11-01T08:33:52.069Z,958.86
2018-11-01T08:34:52.047Z,958.77
2018-11-01T08:35:52.023Z,958.74
2018-11-01T08:36:52.050Z,958.72
2018-11-01T08:37:51.997Z,958.75
2018-11-01T08:38:51.997Z,958.76
2018-11-01T08:39:51.989Z,958.81
2018-11-01T08:40:52.025Z,958.84
2018-11-01T08:41:51.955Z,958.94
2018-11-01T08:42:51.949Z,958.82
2018-11-01T08:43:51.931Z,958.80
2018-11-01T08:44:51.928Z,958.88
2018-11-01T08:45:51.927Z,958.95
2018-11-01T08:46:51.896Z,959.03
2018-11-01T08:47:51.890Z,959.00
2018-11-01T08:48:51.879Z,958.93
2018-11-01T08:49:51.863Z,958.93
2018-11-01T08:50:51.857Z,958.87
2018-11-01T08:51:51.859Z,958.86
2018-11-01T08:52:51.833Z,958.80
2018-11-01T08:53:51.842Z,958.77
2018-11-01T08:54:51.811Z,958.72
2018-11-01T08:55:51.852Z,958.73
2018-11-01T08:56:51.788Z,958.72
2018-11-01T08:57:51.776Z,958.67
2018-11-01T08:58:52.003Z,958.66
2018-11-01T08:59:51.755Z,958.71
2018-11-01T09:00:51.762Z,958.74
2018-11-01T09:01:51.732Z,958.73
2018-11-01T09:02:51.721Z,958.81
2018-11-01T09:03:51.724Z,958.90
2018-11-01T09:04:51.704Z,958.80
2018-11-01T09:05:51.688Z,958.81
2018-11-01T09:06:51.698Z,958.83
2018-11-01T09:07:51.716Z,958.98
2018-11-01T09:08:51.665Z,959.06
2018-11-01T09:09:51.643Z,959.16
2018-11-01T09:10:51.634Z,959.20
2018-11-01T09:11:51.617Z,959.10
2018-11-01T09:12:51.743Z,958.99
2018-11-01T09:13:51.628Z,959.04
2018-11-01T09:14:51.585Z,959.07
2018-11-01T09:15:51.572Z,959.11
2018-11-01T09:16:51.565Z,959.09
2018-11-01T09:17:51.550Z,958.97
2018-11-01T09:18:51.575Z,959.07
2018-11-01T09:19:51.597Z,959.21
2018-11-01T09:20:51.516Z,959.02
2018-11-01T09:21:51.569Z,958.97
2018-11-01T09:22:51.506Z,958.90
2018-11-01T09:23:51.485Z,958.86
2018-11-01T09:24:51.485Z,958.87
2018-11-01T09:25:51.460Z,958.94
2018-11-01T09:26:51.557Z,958.80
2018-11-01T09:27:51.454Z,958.71
2018-11-01T09:28:51.451Z,958.52
2018-11-01T09:29:51.427Z,958.48
2018-11-01T09:30:51.412Z,958.50
2018-11-01T09:31:51.396Z,958.72
2018-11-01T09:32:51.393Z,959.04
2018-11-01T09:33:51.396Z,959.20
2018-11-01T09:34:51.365Z,959.18
2018-11-01T09:35:51.492Z,959.07
2018-11-01T09:36:51.358Z,959.01
2018-11-01T09:37:51.328Z,958.88
2018-11-01T09:38:51.318Z,958.85
2018-11-01T09:39:51.316Z,958.90
2018-11-01T09:40:51.295Z,958.84
2018-11-01T09:41:51.289Z,958.84
2018-11-01T09:42:51.280Z,958.84
2018-11-01T09:43:51.260Z,958.79
2018-11-01T09:44:51.278Z,958.72
2018-11-01T09:45:51.318Z,958.72
2018-11-01T09:46:51.560Z,958.94
2018-11-01T09:47:51.434Z,958.98
2018-11-01T09:48:51.226Z,959.10
2018-11-01T09:49:51.227Z,959.12
2018-11-01T09:50:51.185Z,959.07
2018-11-01T09:51:51.177Z,959.13
2018-11-01T09:52:51.158Z,959.15
2018-11-01T09:53:51.152Z,959.18
2018-11-01T09:54:51.143Z,959.11
2018-11-01T09:55:51.308Z,959.00
2018-11-01T09:56:51.117Z,959.01
2018-11-01T09:57:58.450Z,959.13
2018-11-01T09:58:51.100Z,959.27
2018-11-01T09:59:58.568Z,959.39
2018-11-01T10:00:51.213Z,959.42
2018-11-01T10:01:58.087Z,959.48
2018-11-01T10:02:51.070Z,959.50
2018-11-01T10:03:58.060Z,959.50
2018-11-01T10:04:58.205Z,959.42
2018-11-01T10:05:51.018Z,959.35
2018-11-01T10:08:13.073Z,959.34
2018-11-01T10:10:21.740Z,959.40
2018-11-01T10:12:30.451Z,959.35
2018-11-01T10:13:37.526Z,959.36
2018-11-01T10:14:37.462Z,959.45
2018-11-01T10:15:30.624Z,959.43
2018-11-01T10:16:30.587Z,959.44
2018-11-01T10:17:30.937Z,959.47
2018-11-01T10:18:30.676Z,959.57
2018-11-01T10:19:30.378Z,959.64
2018-11-01T10:20:30.388Z,959.64
2018-11-01T10:21:30.522Z,959.72
2018-11-01T10:22:30.535Z,959.74
2018-11-01T10:23:30.344Z,959.79
2018-11-01T10:24:30.341Z,959.67
2018-11-01T10:25:30.425Z,959.57
2018-11-01T10:26:30.334Z,959.65
2018-11-01T10:27:30.326Z,959.63
2018-11-01T10:28:30.282Z,959.51
2018-11-01T10:29:30.273Z,959.47
2018-11-01T10:30:30.255Z,959.42
2018-11-01T10:31:30.239Z,959.37
2018-11-01T10:32:30.235Z,959.32
2018-11-01T10:33:30.221Z,959.26
2018-11-01T10:34:30.213Z,959.21
2018-11-01T10:35:30.203Z,959.14
2018-11-01T10:36:30.211Z,959.18
2018-11-01T10:37:30.231Z,959.18
2018-11-01T10:38:30.179Z,959.21
2018-11-01T10:39:30.151Z,959.21
2018-11-01T10:40:30.189Z,959.18
2018-11-01T10:41:30.188Z,959.21
2018-11-01T10:42:30.115Z,959.20
2018-11-01T10:43:30.136Z,959.15
2018-11-01T10:44:30.102Z,959.06
2018-11-01T10:45:30.091Z,959.01
2018-11-01T10:46:30.114Z,959.00
2018-11-01T10:47:30.064Z,958.96
2018-11-01T10:48:30.048Z,958.88
2018-11-01T10:49:30.081Z,958.81
2018-11-01T10:50:30.041Z,958.74
2018-11-01T10:51:30.038Z,958.67
2018-11-01T10:52:29.996Z,958.66
2018-11-01T10:53:30.098Z,958.68
2018-11-01T10:54:30.122Z,958.67
2018-11-01T10:55:29.964Z,958.64
2018-11-01T10:56:30.010Z,958.53
2018-11-01T10:57:29.967Z,958.40
2018-11-01T10:58:29.932Z,958.45
2018-11-01T10:59:29.928Z,958.38
2018-11-01T11:00:30.096Z,958.41
2018-11-01T11:01:29.969Z,958.40
2018-11-01T11:02:29.908Z,958.38
2018-11-01T11:03:29.902Z,958.42
2018-11-01T11:04:29.861Z,958.52
2018-11-01T11:05:29.855Z,958.57
2018-11-01T11:06:29.857Z,958.57
2018-11-01T11:07:29.855Z,958.55
2018-11-01T11:08:29.871Z,958.58
2018-11-01T11:09:29.813Z,958.52
2018-11-01T11:10:29.818Z,958.48
2018-11-01T11:11:29.799Z,958.45
2018-11-01T11:12:29.800Z,958.42
2018-11-01T11:13:29.775Z,958.38
2018-11-01T11:14:29.809Z,958.27
2018-11-01T11:15:29.745Z,958.27
2018-11-01T11:16:29.772Z,958.27
2018-11-01T11:17:29.762Z,958.24
2018-11-01T11:18:29.726Z,958.20
2018-11-01T11:19:29.729Z,958.28
2018-11-01T11:20:29.874Z,958.27
2018-11-01T11:21:29.669Z,958.22
2018-11-01T11:22:29.674Z,958.22
2018-11-01T11:23:29.661Z,958.29
2018-11-01T11:24:29.694Z,958.27
2018-11-01T11:25:29.635Z,958.22
2018-11-01T11:26:29.627Z,958.24
2018-11-01T11:27:29.653Z,958.24
2018-11-01T11:28:29.601Z,958.23
2018-11-01T11:29:29.580Z,958.22
2018-11-01T11:30:29.806Z,958.18
2018-11-01T11:31:29.578Z,958.18
2018-11-01T11:32:29.566Z,958.15
2018-11-01T11:33:29.534Z,958.18
2018-11-01T11:34:29.557Z,958.14
2018-11-01T11:35:29.533Z,958.17
2018-11-01T11:36:29.500Z,958.14
2018-11-01T11:37:29.494Z,958.18
2018-11-01T11:38:29.489Z,958.16
2018-11-01T11:39:29.503Z,958.17
2018-11-01T11:40:29.469Z,958.22
2018-11-01T11:41:29.462Z,958.24
2018-11-01T11:42:29.450Z,958.17
2018-11-01T11:43:29.477Z,958.22
2018-11-01T11:44:29.425Z,958.22
2018-11-01T11:45:29.459Z,958.17
2018-11-01T11:46:29.404Z,958.13
2018-11-01T11:47:29.430Z,958.07
2018-11-01T11:48:29.381Z,958.06
2018-11-01T11:49:29.381Z,958.13
2018-11-01T11:50:29.371Z,958.21
2018-11-01T11:51:29.383Z,958.24
2018-11-01T11:52:29.332Z,958.35
2018-11-01T11:53:29.349Z,958.40
2018-11-01T11:54:29.304Z,958.33
2018-11-01T11:55:29.324Z,958.31
2018-11-01T11:56:29.277Z,958.31
2018-11-01T11:57:29.266Z,958.27
2018-11-01T11:58:29.294Z,958.29
2018-11-01T11:59:29.242Z,958.30
2018-11-01T12:00:29.236Z,958.21
2018-11-01T12:01:29.264Z,958.20
2018-11-01T12:02:29.240Z,958.27
2018-11-01T12:03:29.250Z,958.33
2018-11-01T12:04:29.213Z,958.33
2018-11-01T12:05:29.287Z,958.37
2018-11-01T12:06:29.227Z,958.41
2018-11-01T12:07:29.157Z,958.48
2018-11-01T12:08:29.160Z,958.56
2018-11-01T12:09:29.146Z,958.60
2018-11-01T12:10:29.134Z,958.63
2018-11-01T12:11:29.136Z,958.62
2018-11-01T12:12:29.147Z,958.61
2018-11-01T12:13:29.110Z,958.56
2018-11-01T12:14:29.083Z,958.54
2018-11-01T12:15:29.110Z,958.57
2018-11-01T12:16:29.090Z,958.60
2018-11-01T12:17:29.072Z,958.58
2018-11-01T12:18:29.067Z,958.57
2018-11-01T12:19:29.046Z,958.57
2018-11-01T12:20:29.044Z,958.61
2018-11-01T12:21:29.018Z,958.66
2018-11-01T12:22:29.083Z,958.71
2018-11-01T12:23:29.019Z,958.75
2018-11-01T12:24:28.964Z,958.76
2018-11-01T12:25:28.952Z,958.74
2018-11-01T12:26:28.947Z,958.74
2018-11-01T12:27:28.933Z,958.76
2018-11-01T12:28:29.006Z,958.74
2018-11-01T12:29:28.930Z,958.72
2018-11-01T12:30:28.893Z,958.77
2018-11-01T12:31:28.883Z,958.73
2018-11-01T12:32:28.879Z,958.79